createdAt,value
2019-01-30T00:01:45.293Z,61025.79
2019-01-30T00:04:11.520Z,61031.41
2019-01-30T00:06:37.795Z,61025.52
2019-01-30T00:09:45.336Z,61013.71
2019-01-30T00:12:11.468Z,61016.99
2019-01-30T00:14:37.699Z,60998.56
2019-01-30T00:17:03.936Z,61002.82
2019-01-30T00:19:30.167Z,61001.41
2019-01-30T00:21:56.301Z,61004.18
2019-01-30T00:24:22.522Z,60983.32
2019-01-30T00:26:48.757Z,60989.68
2019-01-30T00:29:14.887Z,60974.60
2019-01-30T00:31:41.037Z,60979.52
2019-01-30T00:34:07.254Z,60980.67
2019-01-30T00:36:33.400Z,60965.99
2019-01-30T00:38:59.535Z,60951.31
2019-01-30T00:41:25.788Z,60954.51
2019-01-30T00:43:51.912Z,60950.96
2019-01-30T00:46:18.153Z,60966.79
2019-01-30T00:48:44.374Z,60959.15
2019-01-30T00:51:10.614Z,60955.60
2019-01-30T00:53:36.754Z,60949.01
2019-01-30T00:56:44.291Z,60937.00
2019-01-30T00:59:10.529Z,60931.51
2019-01-30T01:01:36.665Z,60946.53
2019-01-30T01:04:44.196Z,60949.73
2019-01-30T01:07:10.451Z,60958.28
2019-01-30T01:09:36.670Z,60954.51
2019-01-30T01:12:03.006Z,60973.80
2019-01-30T01:14:29.133Z,60986.99
2019-01-30T01:16:55.278Z,60988.13
2019-01-30T01:19:21.496Z,61016.45
2019-01-30T01:21:47.730Z,61017.24
2019-01-30T01:24:13.951Z,61024.18
2019-01-30T01:26:40.073Z,61028.27
2019-01-30T01:29:06.216Z,61031.25
2019-01-30T01:31:32.437Z,61031.58
2019-01-30T01:33:58.672Z,61052.25
2019-01-30T01:36:24.794Z,61054.91
2019-01-30T01:38:51.028Z,61037.45
2019-01-30T01:41:17.243Z,61051.17
2019-01-30T01:43:43.380Z,61047.97
2019-01-30T01:46:09.621Z,61038.89
2019-01-30T01:48:35.852Z,61029.80
2019-01-30T01:51:02.079Z,61006.04
2019-01-30T01:53:28.316Z,61010.04
2019-01-30T01:55:54.535Z,60997.75
2019-01-30T01:58:20.786Z,60966.78
2019-01-30T02:00:47.030Z,60973.73
2019-01-30T02:03:13.264Z,60954.80
2019-01-30T02:05:39.487Z,60948.93
2019-01-30T02:08:05.741Z,60945.01
2019-01-30T02:10:31.964Z,60946.53
2019-01-30T02:12:58.216Z,60947.60
2019-01-30T02:15:24.441Z,60950.27
2019-01-30T02:18:31.984Z,60936.73
2019-01-30T02:20:58.211Z,60917.17
2019-01-30T02:23:24.447Z,60928.38
2019-01-30T02:25:50.669Z,60916.91
2019-01-30T02:28:16.951Z,60926.79
2019-01-30T02:30:47.450Z,60913.18
2019-01-30T02:33:11.292Z,60898.16
2019-01-30T02:35:37.532Z,60915.01
2019-01-30T02:38:03.857Z,60905.52
2019-01-30T02:40:30.104Z,60915.59
2019-01-30T02:42:56.328Z,60892.45
2019-01-30T02:46:03.875Z,60908.46
2019-01-30T02:48:30.096Z,60903.58
2019-01-30T02:50:56.344Z,60901.71
2019-01-30T02:53:22.560Z,60894.25
2019-01-30T02:55:48.694Z,60878.84
2019-01-30T02:58:14.929Z,60880.38
2019-01-30T03:00:41.185Z,60876.11
2019-01-30T03:03:07.398Z,60875.04
2019-01-30T03:05:33.685Z,60872.38
2019-01-30T03:07:59.918Z,60857.44
2019-01-30T03:10:26.147Z,60880.92
2019-01-30T03:12:52.365Z,60880.95
2019-01-30T03:15:59.907Z,60890.77
2019-01-30T03:18:26.140Z,60902.25
2019-01-30T03:20:52.384Z,60911.31
2019-01-30T03:23:18.516Z,60905.71
2019-01-30T03:25:44.753Z,60904.63
2019-01-30T03:28:10.981Z,60898.23
2019-01-30T03:30:37.232Z,60898.44
2019-01-30T03:33:03.565Z,60908.65
2019-01-30T03:35:29.813Z,60921.98
2019-01-30T03:37:56.031Z,60931.32
2019-01-30T03:41:03.571Z,60956.13
2019-01-30T03:46:15.611Z,60979.07
2019-01-30T03:48:41.839Z,60986.41
2019-01-30T03:51:08.088Z,61006.30
2019-01-30T03:53:34.320Z,61022.32
2019-01-30T03:56:00.467Z,61019.72
2019-01-30T03:58:26.631Z,61018.23
2019-01-30T04:00:52.784Z,61032.74
2019-01-30T04:03:18.900Z,61055.45
2019-01-30T04:05:45.119Z,61070.42
2019-01-30T04:08:11.289Z,61083.78
2019-01-30T04:10:37.411Z,61086.71
2019-01-30T04:13:03.645Z,61090.42
2019-01-30T04:15:29.882Z,61100.86
2019-01-30T04:18:17.657Z,61102.48
2019-01-30T04:20:43.898Z,61093.93
2019-01-30T04:23:10.136Z,61085.37
2019-01-30T04:25:36.363Z,61071.54
2019-01-30T04:28:02.607Z,61066.14
2019-01-30T04:30:28.731Z,61059.20
2019-01-30T04:32:54.982Z,61031.39
2019-01-30T04:35:21.208Z,61040.48
2019-01-30T04:37:47.443Z,61031.95
2019-01-30T04:43:27.285Z,61022.32
2019-01-30T04:45:53.505Z,61005.30
2019-01-30T04:48:19.638Z,61009.51
2019-01-30T04:50:45.875Z,61000.44
2019-01-30T04:53:12.166Z,60983.71
2019-01-30T04:55:38.286Z,60993.21
2019-01-30T04:58:04.519Z,61016.45
2019-01-30T05:00:30.752Z,61021.18
2019-01-30T05:02:57.000Z,61049.58
2019-01-30T05:05:23.234Z,61051.52
2019-01-30T05:07:49.502Z,61060.50
2019-01-30T05:10:15.709Z,61057.58
2019-01-30T05:12:41.944Z,61057.64
2019-01-30T05:15:27.921Z,61073.96
2019-01-30T05:17:54.069Z,61086.98
2019-01-30T05:20:20.284Z,61095.55
2019-01-30T05:25:40.321Z,61099.52
2019-01-30T05:28:06.554Z,61106.47
2019-01-30T05:30:32.986Z,61122.79
2019-01-30T05:32:59.119Z,61132.41
2019-01-30T05:35:25.344Z,61128.91
2019-01-30T05:37:51.761Z,61135.72
2019-01-30T05:40:59.326Z,61142.57
2019-01-30T05:43:25.587Z,61144.18
2019-01-30T05:45:51.810Z,61137.29
2019-01-30T05:48:18.060Z,61150.60
2019-01-30T05:50:44.304Z,61135.78
2019-01-30T05:53:10.551Z,61142.30
2019-01-30T05:55:36.775Z,61153.81
2019-01-30T05:58:03.123Z,61149.44
2019-01-30T06:03:43.004Z,61158.34
2019-01-30T06:06:09.126Z,61166.64
2019-01-30T06:08:35.375Z,61169.33
2019-01-30T06:11:01.611Z,61169.33
2019-01-30T06:13:27.874Z,61172.00
2019-01-30T06:15:53.995Z,61176.80
2019-01-30T06:18:20.221Z,61175.75
2019-01-30T06:20:46.461Z,61168.26
2019-01-30T06:23:12.689Z,61157.02
2019-01-30T06:25:38.831Z,61129.18
2019-01-30T06:28:05.056Z,61137.23
2019-01-30T06:30:31.292Z,61124.92
2019-01-30T06:32:57.611Z,61102.54
2019-01-30T06:35:23.859Z,61101.73
2019-01-30T06:37:50.087Z,61094.47
2019-01-30T06:40:57.638Z,61090.54
2019-01-30T06:43:23.868Z,61083.78
2019-01-30T06:45:50.106Z,61073.34
2019-01-30T06:51:03.957Z,61045.84
2019-01-30T06:53:30.183Z,61020.21
2019-01-30T06:55:56.419Z,61021.80
2019-01-30T06:58:22.646Z,61015.91
2019-01-30T07:00:48.908Z,61010.58
2019-01-30T07:03:15.139Z,61010.58
2019-01-30T07:05:41.379Z,61016.45
2019-01-30T07:08:07.617Z,61018.58
2019-01-30T07:10:33.851Z,61019.11
2019-01-30T07:12:59.974Z,61019.11
2019-01-30T07:15:26.113Z,61013.79
2019-01-30T07:17:52.337Z,61007.38
2019-01-30T07:20:18.478Z,61018.58
2019-01-30T07:22:44.718Z,61017.53
2019-01-30T07:25:52.262Z,60996.33
2019-01-30T07:28:18.495Z,61006.84
2019-01-30T07:30:44.748Z,61014.36
2019-01-30T07:33:10.977Z,61011.64
2019-01-30T07:35:37.223Z,61004.18
2019-01-30T07:40:53.485Z,60999.36
2019-01-30T07:43:19.695Z,61002.13
2019-01-30T07:45:45.949Z,61005.65
2019-01-30T07:48:12.164Z,61027.13
2019-01-30T07:50:38.422Z,61036.21
2019-01-30T07:53:04.655Z,61039.95
2019-01-30T07:55:30.887Z,61034.00
2019-01-30T08:01:10.560Z,61039.43
2019-01-30T08:03:38.948Z,61048.36
2019-01-30T08:06:04.943Z,61049.04
2019-01-30T08:08:31.181Z,61042.16
2019-01-30T08:10:57.426Z,61040.22
2019-01-30T08:13:23.659Z,61047.97
2019-01-30T08:15:49.780Z,61037.35
2019-01-30T08:18:16.024Z,61040.94
2019-01-30T08:20:42.259Z,61052.79
2019-01-30T08:23:08.759Z,61046.63
2019-01-30T08:25:35.336Z,61056.53
2019-01-30T08:28:44.604Z,61055.45
2019-01-30T08:31:11.147Z,61053.32
2019-01-30T08:33:39.044Z,61053.84
2019-01-30T08:36:05.270Z,61047.97
2019-01-30T08:38:31.519Z,61043.01
2019-01-30T08:40:57.756Z,61024.93
2019-01-30T08:43:24.000Z,61028.75
2019-01-30T08:45:50.225Z,61027.67
2019-01-30T08:51:10.935Z,61036.75
2019-01-30T08:53:37.175Z,61039.43
2019-01-30T08:56:03.515Z,61044.77
2019-01-30T08:58:29.692Z,61055.45
2019-01-30T09:00:55.819Z,61065.07
2019-01-30T09:03:22.081Z,61075.75
2019-01-30T09:05:48.198Z,61066.31
2019-01-30T09:08:14.462Z,61082.16
2019-01-30T09:10:40.655Z,61090.19
2019-01-30T09:13:06.891Z,61095.01
2019-01-30T09:15:33.015Z,61100.86
2019-01-30T09:17:59.255Z,61101.01
2019-01-30T09:23:38.829Z,61112.63
2019-01-30T09:26:05.157Z,61103.86
2019-01-30T09:28:51.149Z,61126.00
2019-01-30T09:31:17.279Z,61133.49
2019-01-30T09:33:43.571Z,61146.36
2019-01-30T09:36:10.005Z,61144.97
2019-01-30T09:38:36.202Z,61154.05
2019-01-30T09:41:02.531Z,61164.51
2019-01-30T09:43:28.770Z,61167.72
2019-01-30T09:45:54.997Z,61156.45
2019-01-30T09:48:21.174Z,61168.79
2019-01-30T09:50:47.259Z,61170.66
2019-01-30T09:53:13.505Z,61182.71
2019-01-30T09:55:39.627Z,61191.26
2019-01-30T09:58:05.746Z,61190.20
2019-01-30T10:01:13.291Z,61181.36
2019-01-30T10:03:39.532Z,61182.71
2019-01-30T10:06:05.854Z,61192.33
2019-01-30T10:08:32.093Z,61199.75
2019-01-30T10:10:58.339Z,61215.88
2019-01-30T10:13:24.472Z,61200.61
2019-01-30T10:15:50.714Z,61191.95
2019-01-30T10:21:04.578Z,61203.58
2019-01-30T10:23:30.808Z,61186.80
2019-01-30T10:25:57.044Z,61205.17
2019-01-30T10:28:23.267Z,61196.62
2019-01-30T10:30:49.516Z,61189.13
2019-01-30T10:33:15.643Z,61164.43
2019-01-30T10:35:41.914Z,61159.42
2019-01-30T10:38:08.099Z,61142.55
2019-01-30T10:40:34.343Z,61152.20
2019-01-30T10:43:00.576Z,61128.00
2019-01-30T10:45:26.832Z,61136.49
2019-01-30T10:47:53.062Z,61134.02
2019-01-30T10:50:39.053Z,61136.16
2019-01-30T10:53:05.174Z,61119.50
2019-01-30T10:56:12.713Z,61118.32
2019-01-30T10:58:38.984Z,61087.27
2019-01-30T11:01:05.230Z,61102.27
2019-01-30T11:03:31.362Z,61107.81
2019-01-30T11:05:57.611Z,61096.58
2019-01-30T11:08:23.859Z,61102.99
2019-01-30T11:10:50.919Z,61100.86
2019-01-30T11:13:18.132Z,61093.39
2019-01-30T11:15:44.365Z,61083.70
2019-01-30T11:18:32.146Z,61074.60
2019-01-30T11:20:58.288Z,61068.33
2019-01-30T11:23:24.503Z,61063.47
2019-01-30T11:26:32.045Z,61048.51
2019-01-30T11:28:58.172Z,61038.69
2019-01-30T11:31:24.439Z,61036.21
2019-01-30T11:33:50.563Z,61030.34
2019-01-30T11:36:16.807Z,61002.37
2019-01-30T11:38:43.033Z,60992.95
2019-01-30T11:41:09.271Z,61000.95
2019-01-30T11:43:35.393Z,60990.81
2019-01-30T11:46:01.625Z,60978.25
2019-01-30T11:48:27.864Z,60988.14
2019-01-30T11:50:54.085Z,60973.43
2019-01-30T11:53:20.274Z,60981.74
2019-01-30T11:55:46.402Z,60971.32
2019-01-30T11:58:12.632Z,60963.61
2019-01-30T12:00:58.632Z,60965.64
2019-01-30T12:06:32.226Z,60972.68
2019-01-30T12:08:58.596Z,60970.53
2019-01-30T12:11:32.298Z,60949.04
2019-01-30T12:13:58.539Z,60958.18
2019-01-30T12:16:27.582Z,60943.86
2019-01-30T12:18:53.820Z,60957.21
2019-01-30T12:21:20.040Z,60948.66
2019-01-30T12:23:46.266Z,60932.58
2019-01-30T12:26:12.490Z,60925.97
2019-01-30T12:28:38.729Z,60924.71
2019-01-30T12:31:04.955Z,60931.58
2019-01-30T12:33:31.225Z,60923.70
2019-01-30T12:35:57.442Z,60918.79
2019-01-30T12:38:23.661Z,60909.83
2019-01-30T12:40:49.908Z,60901.43
2019-01-30T12:43:16.144Z,60893.24
2019-01-30T12:45:42.378Z,60892.02
2019-01-30T12:48:10.700Z,60893.52
2019-01-30T12:50:36.843Z,60870.79
2019-01-30T12:53:03.087Z,60877.48
2019-01-30T12:55:29.764Z,60881.45
2019-01-30T13:01:10.962Z,60876.65
2019-01-30T13:03:37.211Z,60876.15
2019-01-30T13:06:03.531Z,60868.64
2019-01-30T13:08:29.665Z,60857.44
2019-01-30T13:10:55.895Z,60854.78
2019-01-30T13:13:22.140Z,60835.25
2019-01-30T13:15:48.381Z,60836.39
2019-01-30T13:18:18.486Z,60833.40
2019-01-30T13:20:42.764Z,60825.76
2019-01-30T13:23:08.997Z,60823.24
2019-01-30T13:25:35.220Z,60810.39
2019-01-30T13:28:01.468Z,60820.70
2019-01-30T13:30:47.457Z,60815.38
2019-01-30T13:33:13.696Z,60798.92
2019-01-30T13:35:39.910Z,60806.84
2019-01-30T13:38:06.135Z,60785.00
2019-01-30T13:43:33.518Z,60780.82
2019-01-30T13:46:05.508Z,60773.01
2019-01-30T13:48:27.890Z,60758.02
2019-01-30T13:50:54.151Z,60765.63
2019-01-30T13:53:20.375Z,60756.76
2019-01-30T13:55:46.589Z,60740.52
2019-01-30T13:58:12.831Z,60734.14
2019-01-30T14:00:39.047Z,60734.41
2019-01-30T14:06:18.549Z,60709.96
2019-01-30T14:08:44.681Z,60710.63
2019-01-30T14:11:10.913Z,60701.17
2019-01-30T14:13:37.048Z,60704.61
2019-01-30T14:18:56.855Z,60684.48
2019-01-30T14:21:23.104Z,60680.42
2019-01-30T14:23:49.247Z,60680.67
2019-01-30T14:26:15.364Z,60663.91
2019-01-30T14:28:41.795Z,60654.88
2019-01-30T14:31:07.959Z,60650.09
2019-01-30T14:33:34.046Z,60646.18
2019-01-30T14:36:00.349Z,60650.36
2019-01-30T14:38:26.623Z,60646.63
2019-01-30T14:40:52.884Z,60643.98
2019-01-30T14:43:19.077Z,60628.63
2019-01-30T14:45:45.348Z,60626.01
2019-01-30T14:48:11.658Z,60621.66
2019-01-30T14:50:37.897Z,60604.92
2019-01-30T14:53:04.079Z,60605.19
2019-01-30T14:58:24.908Z,60592.95
2019-01-30T15:00:52.073Z,60584.46
2019-01-30T15:03:18.170Z,60578.45
2019-01-30T15:05:44.442Z,60567.46
2019-01-30T15:08:10.574Z,60540.72
2019-01-30T15:10:36.782Z,60535.60
2019-01-30T15:13:44.298Z,60546.72
2019-01-30T15:16:10.446Z,60528.77
2019-01-30T15:18:36.705Z,60524.16
2019-01-30T15:21:44.203Z,60516.89
2019-01-30T15:24:10.423Z,60514.81
2019-01-30T15:26:36.702Z,60520.04
2019-01-30T15:32:10.387Z,60499.49
2019-01-30T15:34:36.608Z,60479.53
2019-01-30T15:37:02.838Z,60480.77
2019-01-30T15:39:29.063Z,60489.94
2019-01-30T15:41:55.298Z,60481.44
2019-01-30T15:44:21.553Z,60481.97
2019-01-30T15:46:47.684Z,60478.25
2019-01-30T15:49:13.907Z,60466.32
2019-01-30T15:51:40.123Z,60461.03
2019-01-30T15:54:06.355Z,60455.00
2019-01-30T15:56:32.578Z,60460.74
2019-01-30T15:58:58.823Z,60453.84
2019-01-30T16:01:25.061Z,60438.20
2019-01-30T16:03:51.291Z,60436.45
2019-01-30T16:06:17.517Z,60422.57
2019-01-30T16:08:43.781Z,60417.28
2019-01-30T16:11:09.898Z,60431.04
2019-01-30T16:13:36.030Z,60421.13
2019-01-30T16:19:16.361Z,60414.60
2019-01-30T16:21:42.578Z,60409.30
2019-01-30T16:24:08.834Z,60395.08
2019-01-30T16:26:34.961Z,60397.63
2019-01-30T16:29:01.106Z,60387.56
2019-01-30T16:31:27.486Z,60361.78
2019-01-30T16:33:53.781Z,60370.87
2019-01-30T16:36:19.904Z,60371.25
2019-01-30T16:38:46.142Z,60365.91
2019-01-30T16:41:12.368Z,60351.18
2019-01-30T16:43:38.503Z,60353.74
2019-01-30T16:46:46.045Z,60348.96
2019-01-30T16:49:12.340Z,60332.48
2019-01-30T16:51:38.461Z,60343.04
2019-01-30T16:54:04.591Z,60325.52
2019-01-30T16:56:30.835Z,60319.70
2019-01-30T16:58:56.966Z,60309.26
2019-01-30T17:01:23.190Z,60314.98
2019-01-30T17:03:49.420Z,60296.20
2019-01-30T17:06:15.541Z,60300.15
2019-01-30T17:08:41.767Z,60283.42
2019-01-30T17:11:08.009Z,60289.65
2019-01-30T17:13:34.219Z,60293.79
2019-01-30T17:16:00.352Z,60267.90
2019-01-30T17:18:26.569Z,60261.79
2019-01-30T17:20:52.701Z,60254.71
2019-01-30T17:23:18.952Z,60262.02
2019-01-30T17:25:45.183Z,60249.60
2019-01-30T17:28:11.303Z,60242.03
2019-01-30T17:30:58.503Z,60239.77
2019-01-30T17:33:24.754Z,60240.34
2019-01-30T17:35:50.932Z,60211.44
2019-01-30T17:38:17.057Z,60206.34
2019-01-30T17:41:24.588Z,60212.41
2019-01-30T17:43:50.725Z,60219.19
2019-01-30T17:46:16.963Z,60207.64
2019-01-30T17:48:43.196Z,60200.23
2019-01-30T17:51:09.434Z,60186.83
2019-01-30T17:53:35.659Z,60177.50
2019-01-30T17:56:01.916Z,60189.02
2019-01-30T17:58:28.138Z,60186.38
2019-01-30T18:03:28.171Z,60156.30
2019-01-30T18:05:54.396Z,60157.95
2019-01-30T18:11:08.240Z,60154.14
2019-01-30T18:13:34.462Z,60134.54
2019-01-30T18:16:00.799Z,60127.82
2019-01-30T18:18:27.024Z,60124.12
2019-01-30T18:20:53.270Z,60131.95
2019-01-30T18:23:19.491Z,60119.89
2019-01-30T18:25:45.731Z,60114.61
2019-01-30T18:28:11.972Z,60107.21
2019-01-30T18:30:38.214Z,60096.24
2019-01-30T18:33:04.444Z,60104.93
2019-01-30T18:35:30.559Z,60108.69
2019-01-30T18:37:56.803Z,60108.69
2019-01-30T18:40:42.781Z,60096.29
2019-01-30T18:43:09.026Z,60083.73
2019-01-30T18:45:35.272Z,60086.26
2019-01-30T18:48:01.511Z,60093.37
2019-01-30T18:51:09.040Z,60074.60
2019-01-30T18:53:35.182Z,60089.68
2019-01-30T18:56:01.408Z,60085.46
2019-01-30T18:58:27.545Z,60064.74
2019-01-30T19:00:53.774Z,60071.13
2019-01-30T19:03:20.063Z,60062.82
2019-01-30T19:05:46.298Z,60067.96
2019-01-30T19:08:12.553Z,60065.68
2019-01-30T19:10:38.790Z,60053.52
2019-01-30T19:13:05.041Z,60061.17
2019-01-30T19:15:31.215Z,60050.08
2019-01-30T19:17:57.407Z,60034.88
2019-01-30T19:20:44.195Z,60042.17
2019-01-30T19:23:10.488Z,60024.43
2019-01-30T19:25:36.716Z,60044.81
2019-01-30T19:28:44.260Z,60043.75
2019-01-30T19:31:10.397Z,60032.96
2019-01-30T19:33:36.647Z,60030.13
2019-01-30T19:36:02.916Z,60042.73
2019-01-30T19:38:29.171Z,60029.59
2019-01-30T19:40:55.323Z,60037.41
2019-01-30T19:43:21.698Z,60034.78
2019-01-30T19:45:47.920Z,60012.30
2019-01-30T19:48:14.040Z,60019.77
2019-01-30T19:50:40.180Z,60009.37
2019-01-30T19:53:06.603Z,60015.23
2019-01-30T19:55:32.789Z,60015.23
2019-01-30T19:57:59.019Z,59998.41
2019-01-30T20:01:06.560Z,60004.28
2019-01-30T20:03:32.804Z,60016.45
2019-01-30T20:05:59.025Z,59999.09
2019-01-30T20:08:25.270Z,60023.16
2019-01-30T20:10:51.533Z,59974.21
2019-01-30T20:13:17.670Z,60018.18
2019-01-30T20:15:43.897Z,60017.46
2019-01-30T20:18:10.121Z,60019.77
2019-01-30T20:20:36.453Z,60020.98
2019-01-30T20:26:16.729Z,60040.05
2019-01-30T20:28:42.971Z,60034.71
2019-01-30T20:31:09.206Z,60036.99
2019-01-30T20:33:35.423Z,60045.34
2019-01-30T20:36:01.662Z,60029.02
2019-01-30T20:38:27.775Z,60032.36
2019-01-30T20:40:53.920Z,60047.85
2019-01-30T20:43:20.142Z,60077.03
2019-01-30T20:45:46.408Z,60066.85
2019-01-30T20:48:12.627Z,60078.90
2019-01-30T20:50:38.769Z,60085.46
2019-01-30T20:56:12.247Z,60066.57
2019-01-30T20:58:38.367Z,60066.59
2019-01-30T21:03:58.555Z,60061.17
2019-01-30T21:06:24.698Z,60056.43
2019-01-30T21:08:50.841Z,60053.25
2019-01-30T21:11:16.968Z,60041.93
2019-01-30T21:13:43.187Z,60030.23
2019-01-30T21:16:09.436Z,60048.50
2019-01-30T21:18:35.655Z,60038.05
2019-01-30T21:21:01.890Z,60041.77
2019-01-30T21:23:28.111Z,60029.90
2019-01-30T21:25:54.351Z,60037.70
2019-01-30T21:28:20.575Z,60033.29
2019-01-30T21:30:46.808Z,60039.01
2019-01-30T21:33:13.051Z,60035.82
2019-01-30T21:35:39.286Z,60030.02
2019-01-30T21:38:05.532Z,60025.79
2019-01-30T21:40:31.741Z,60004.20
2019-01-30T21:42:57.871Z,60016.07
2019-01-30T21:46:05.425Z,60023.16
2019-01-30T21:48:31.657Z,60009.54
2019-01-30T21:50:57.919Z,60012.93
2019-01-30T21:53:24.026Z,60005.85
2019-01-30T21:55:50.147Z,59994.89
2019-01-30T21:58:16.380Z,60013.13
2019-01-30T22:00:42.598Z,60013.66
2019-01-30T22:03:08.726Z,60001.62
2019-01-30T22:05:34.951Z,59995.14
2019-01-30T22:08:01.492Z,59982.43
2019-01-30T22:10:29.332Z,59980.16
2019-01-30T22:12:55.566Z,59989.34
2019-01-30T22:15:21.789Z,59987.88
2019-01-30T22:17:47.923Z,60011.05
2019-01-30T22:20:55.454Z,60017.36
2019-01-30T22:23:21.697Z,60007.29
2019-01-30T22:25:47.942Z,60009.23
2019-01-30T22:28:14.059Z,60015.23
2019-01-30T22:30:40.300Z,60016.30
2019-01-30T22:33:06.445Z,59998.76
2019-01-30T22:35:32.669Z,60008.15
2019-01-30T22:37:58.800Z,60018.93
2019-01-30T22:40:24.923Z,59998.23
2019-01-30T22:42:51.158Z,60017.36
2019-01-30T22:48:31.080Z,60008.25
2019-01-30T22:50:57.197Z,60038.05
2019-01-30T22:53:23.356Z,60062.23
2019-01-30T22:55:49.601Z,60098.65
2019-01-30T22:58:15.840Z,60124.70
2019-01-30T23:01:23.374Z,60146.74
2019-01-30T23:04:29.141Z,60166.31
2019-01-30T23:13:28.351Z,60231.35
2019-01-30T23:22:48.391Z,60195.61
2019-01-30T23:25:54.116Z,60204.82
2019-01-30T23:32:05.925Z,60256.74
2019-01-30T23:35:11.644Z,60254.17
2019-01-30T23:38:17.404Z,60264.15
2019-01-30T23:47:37.196Z,60196.43
